Time;durP1;ratioP1;P1;durP2;ratioP2;P2;SDS_P1;SDS_P2;PMS_P1;PMS_P2;Temp;Humidity;BMP_temperature;BMP_pressure;BME280_temperature;BME280_humidity;BME280_pressure;Samples;Min_cycle;Max_cycle;Signal;HPM_P1;HPM_P2
2023/10/27 00:00:37;;;;;;;3.00;2.30;;;9.50;1.00;;;;;;5046662;28;20445;-44
2023/10/27 00:03:03;;;;;;;3.43;2.57;;;9.60;1.00;;;;;;5046178;28;20487;-44
2023/10/27 00:05:30;;;;;;;4.43;2.17;;;9.60;99.90;;;;;;5044521;28;20259;-44
2023/10/27 00:07:56;;;;;;;10.60;2.30;;;9.60;99.90;;;;;;5048276;28;20434;-44
2023/10/27 00:10:22;;;;;;;4.00;2.07;;;9.60;1.00;;;;;;5041939;28;20981;-44
2023/10/27 00:12:48;;;;;;;3.07;2.23;;;9.60;1.00;;;;;;5043337;28;20433;-44
2023/10/27 00:15:13;;;;;;;2.77;2.57;;;9.50;1.00;;;;;;5045864;28;20187;-44
2023/10/27 00:17:39;;;;;;;4.90;2.33;;;9.50;99.90;;;;;;5042830;28;20186;-44
2023/10/27 00:20:05;;;;;;;3.97;2.13;;;9.50;1.00;;;;;;5048399;28;20190;-45
2023/10/27 00:22:33;;;;;;;4.80;3.13;;;9.50;1.00;;;;;;5049477;28;20202;-44
2023/10/27 00:24:59;;;;;;;3.30;3.00;;;9.50;1.40;;;;;;5048114;28;20494;-43
2023/10/27 00:27:25;;;;;;;4.40;3.00;;;9.50;49.90;;;;;;5044086;28;20476;-44
2023/10/27 00:29:50;;;;;;;3.30;2.73;;;9.50;99.90;;;;;;5044572;28;20504;-43
2023/10/27 00:32:16;;;;;;;3.07;2.77;;;9.60;1.00;;;;;;5047462;28;20644;-43
2023/10/27 00:34:42;;;;;;;4.30;3.23;;;9.60;1.00;;;;;;5046366;28;20209;-44
2023/10/27 00:37:07;;;;;;;9.67;3.20;;;9.60;54.10;;;;;;5044877;28;20249;-44
2023/10/27 00:39:33;;;;;;;9.97;3.23;;;9.60;99.90;;;;;;5049034;28;20726;-43
2023/10/27 00:41:59;;;;;;;4.00;2.90;;;9.50;1.00;;;;;;5048479;28;20186;-44
2023/10/27 00:44:24;;;;;;;4.60;2.90;;;9.60;99.90;;;;;;5048682;28;20200;-44
2023/10/27 00:46:52;;;;;;;3.30;3.00;;;9.60;1.00;;;;;;5045525;28;20756;-44
2023/10/27 00:49:17;;;;;;;3.70;3.00;;;9.50;1.00;;;;;;5048578;28;20210;-45
2023/10/27 00:51:46;;;;;;;4.37;3.00;;;9.50;99.90;;;;;;5044370;28;20855;-43
2023/10/27 00:54:15;;;;;;;4.80;2.33;;;9.50;1.00;;;;;;5045796;28;20263;-43
2023/10/27 00:56:41;;;;;;;5.13;2.83;;;9.50;99.90;;;;;;5048379;28;20467;-44
2023/10/27 00:59:07;;;;;;;5.97;2.97;;;9.50;99.90;;;;;;5046617;28;20445;-43
2023/10/27 01:01:33;;;;;;;4.17;3.17;;;9.50;99.90;;;;;;5047905;28;20448;-44
2023/10/27 01:03:59;;;;;;;6.23;2.50;;;9.60;99.90;;;;;;5044640;28;20224;-44
2023/10/27 01:06:25;;;;;;;5.23;2.80;;;9.60;1.00;;;;;;5047478;28;20914;-44
2023/10/27 01:08:52;;;;;;;12.00;3.37;;;9.60;1.00;;;;;;5046501;28;20229;-44
2023/10/27 01:11:18;;;;;;;2.60;2.13;;;9.60;1.00;;;;;;5044381;28;20487;-44
2023/10/27 01:13:44;;;;;;;3.53;3.13;;;9.60;99.90;;;;;;5046214;28;20445;-44
2023/10/27 01:16:10;;;;;;;4.73;2.80;;;9.60;1.00;;;;;;5045504;28;20433;-44
2023/10/27 01:18:35;;;;;;;4.83;2.80;;;9.60;1.00;;;;;;5045662;28;20281;-44
2023/10/27 01:21:01;;;;;;;2.90;2.10;;;9.60;1.00;;;;;;5039828;28;20218;-44
2023/10/27 01:23:27;;;;;;;6.50;2.73;;;9.60;99.90;;;;;;5047143;28;20182;-43
2023/10/27 01:25:53;;;;;;;2.83;2.40;;;9.50;40.10;;;;;;5046950;28;20472;-45
2023/10/27 01:28:18;;;;;;;5.20;2.90;;;9.50;26.20;;;;;;5045448;28;20222;-44
2023/10/27 01:30:44;;;;;;;2.70;2.50;;;9.50;1.00;;;;;;5044883;28;20254;-44
2023/10/27 01:33:10;;;;;;;6.73;2.80;;;9.60;1.00;;;;;;5047716;28;20643;-43
2023/10/27 01:35:35;;;;;;;3.13;2.73;;;9.50;1.00;;;;;;5043708;28;20542;-44
2023/10/27 01:38:02;;;;;;;5.70;2.90;;;9.40;1.00;;;;;;5045413;28;20208;-44
2023/10/27 01:40:27;;;;;;;5.37;2.33;;;9.40;1.00;;;;;;5046691;28;20194;-43
2023/10/27 01:42:53;;;;;;;2.73;2.40;;;9.40;1.00;;;;;;5045279;28;21006;-43
2023/10/27 01:45:19;;;;;;;3.57;2.10;;;9.40;1.00;;;;;;5046515;28;21087;-43
2023/10/27 01:47:44;;;;;;;6.53;2.40;;;9.40;99.90;;;;;;5040841;28;20189;-46
2023/10/27 01:50:10;;;;;;;3.20;2.50;;;9.50;99.90;;;;;;5045655;28;20653;-44
2023/10/27 01:52:35;;;;;;;7.67;2.80;;;9.50;1.00;;;;;;5045611;28;20615;-45
2023/10/27 01:55:01;;;;;;;5.17;2.53;;;9.50;99.90;;;;;;5045117;28;20545;-44
2023/10/27 01:57:27;;;;;;;2.73;2.37;;;9.50;99.90;;;;;;5046434;28;20182;-44
2023/10/27 01:59:52;;;;;;;4.07;2.30;;;9.50;1.00;;;;;;5046036;28;20185;-44
2023/10/27 02:02:18;;;;;;;3.40;2.73;;;9.50;1.00;;;;;;5045863;28;20589;-44
2023/10/27 02:04:43;;;;;;;2.30;2.10;;;9.50;1.00;;;;;;5046427;28;20588;-44
2023/10/27 02:07:09;;;;;;;6.07;2.57;;;9.40;99.90;;;;;;5045102;28;20186;-44
2023/10/27 02:09:35;;;;;;;4.10;2.10;;;9.40;1.00;;;;;;5044894;28;20548;-44
2023/10/27 02:12:02;;;;;;;4.03;2.40;;;9.50;99.90;;;;;;5045256;28;20220;-44
2023/10/27 02:14:28;;;;;;;3.57;2.13;;;9.50;1.00;;;;;;5042926;28;20210;-45
2023/10/27 02:16:54;;;;;;;3.50;2.23;;;9.40;99.90;;;;;;5045080;28;20970;-44
2023/10/27 02:19:19;;;;;;;4.30;2.17;;;9.40;99.90;;;;;;5044935;28;20205;-44
2023/10/27 02:21:46;;;;;;;3.63;2.50;;;9.40;1.00;;;;;;5046626;28;20186;-44
2023/10/27 02:24:12;;;;;;;11.23;3.93;;;9.40;1.00;;;;;;5045860;28;20753;-44
2023/10/27 02:26:38;;;;;;;3.00;2.13;;;9.40;1.00;;;;;;5044041;28;20441;-44
2023/10/27 02:29:03;;;;;;;4.83;2.67;;;9.40;99.90;;;;;;5044742;28;20495;-44
2023/10/27 02:31:29;;;;;;;2.23;1.93;;;9.40;99.90;;;;;;5044981;28;20300;-46
2023/10/27 02:33:55;;;;;;;5.03;2.40;;;9.40;99.90;;;;;;5042937;28;20690;-44
2023/10/27 02:36:20;;;;;;;2.17;1.97;;;9.50;39.50;;;;;;5048476;28;20192;-45
2023/10/27 02:38:46;;;;;;;10.77;3.67;;;9.40;1.00;;;;;;5047366;28;20188;-45
2023/10/27 02:41:11;;;;;;;4.00;2.20;;;9.40;1.00;;;;;;5043290;28;20655;-45
2023/10/27 02:43:38;;;;;;;2.77;2.20;;;9.40;1.00;;;;;;5046850;28;20200;-44
2023/10/27 02:46:04;;;;;;;5.53;2.67;;;9.40;99.90;;;;;;5044859;28;20199;-44
2023/10/27 02:48:31;;;;;;;2.53;2.33;;;9.40;13.30;;;;;;5046664;28;20447;-44
2023/10/27 02:50:57;;;;;;;2.43;2.10;;;9.40;1.00;;;;;;5038710;28;20490;-45
2023/10/27 02:53:22;;;;;;;2.77;2.20;;;9.40;1.00;;;;;;5044290;28;20440;-46
2023/10/27 02:55:49;;;;;;;6.20;2.30;;;9.40;1.00;;;;;;5046205;28;20204;-44
2023/10/27 02:58:14;;;;;;;3.67;2.00;;;9.40;99.90;;;;;;5040357;28;20218;-44
2023/10/27 03:00:41;;;;;;;2.90;1.80;;;9.40;99.90;;;;;;5044080;28;20470;-45
2023/10/27 03:03:07;;;;;;;2.27;1.97;;;9.30;99.90;;;;;;5042580;28;20186;-44
2023/10/27 03:05:32;;;;;;;2.00;1.90;;;9.30;99.90;;;;;;5042676;28;20497;-44
2023/10/27 03:07:58;;;;;;;2.30;1.87;;;9.30;1.00;;;;;;5042693;28;20196;-45
2023/10/27 03:10:23;;;;;;;1.93;1.83;;;9.30;91.70;;;;;;5041158;28;20210;-45
2023/10/27 03:12:49;;;;;;;2.80;1.87;;;9.30;1.00;;;;;;5045553;28;20189;-44
2023/10/27 03:15:15;;;;;;;2.23;1.73;;;9.30;1.00;;;;;;5043010;28;20249;-45
2023/10/27 03:17:41;;;;;;;2.57;2.20;;;9.20;99.90;;;;;;5046246;28;20531;-45
2023/10/27 03:20:08;;;;;;;2.10;1.90;;;9.30;1.00;;;;;;5040995;28;20185;-45
2023/10/27 03:22:34;;;;;;;3.13;2.20;;;9.20;1.00;;;;;;5045714;28;20478;-44
2023/10/27 03:25:00;;;;;;;2.10;1.90;;;9.20;56.20;;;;;;5047410;28;20464;-45
2023/10/27 03:27:25;;;;;;;2.40;2.10;;;9.20;99.90;;;;;;5046438;28;20185;-45
2023/10/27 03:29:51;;;;;;;4.53;2.20;;;9.20;99.90;;;;;;5049408;28;20510;-45
2023/10/27 03:32:17;;;;;;;10.77;2.43;;;9.20;1.00;;;;;;5047877;28;20192;-46
2023/10/27 03:34:43;;;;;;;5.03;2.10;;;9.20;1.00;;;;;;5045717;28;20193;-45
2023/10/27 03:37:09;;;;;;;7.00;2.07;;;9.20;1.00;;;;;;5046541;28;20431;-45
2023/10/27 03:39:35;;;;;;;3.30;2.13;;;9.10;1.00;;;;;;5050844;28;20470;-45
2023/10/27 03:42:01;;;;;;;5.17;2.27;;;9.10;1.00;;;;;;5050321;28;20505;-45
2023/10/27 03:44:26;;;;;;;7.70;2.40;;;9.20;1.00;;;;;;5050218;28;20424;-45
2023/10/27 03:46:52;;;;;;;5.43;2.23;;;9.10;1.00;;;;;;5045846;28;20197;-44
2023/10/27 03:49:18;;;;;;;5.20;2.70;;;9.00;1.00;;;;;;5049179;28;20266;-45
2023/10/27 03:51:44;;;;;;;2.90;2.40;;;9.00;11.50;;;;;;5047371;28;20485;-45
2023/10/27 03:54:09;;;;;;;3.60;2.27;;;9.10;37.20;;;;;;5047783;28;20196;-46
2023/10/27 03:56:35;;;;;;;4.00;2.30;;;9.00;60.00;;;;;;5048090;28;20257;-45
2023/10/27 03:59:00;;;;;;;5.40;2.73;;;9.10;91.70;;;;;;5047034;28;20525;-45
2023/10/27 04:01:28;;;;;;;3.30;2.70;;;9.00;98.10;;;;;;5049483;28;20192;-45
2023/10/27 04:03:54;;;;;;;5.50;2.30;;;9.00;99.90;;;;;;5047950;28;20191;-45
2023/10/27 04:06:21;;;;;;;3.80;2.50;;;9.00;99.90;;;;;;5044683;28;20439;-45
2023/10/27 04:08:47;;;;;;;2.73;2.40;;;9.00;99.90;;;;;;5042076;28;20448;-45
2023/10/27 04:11:12;;;;;;;5.20;2.80;;;9.00;99.90;;;;;;5047176;28;20446;-45
2023/10/27 04:13:38;;;;;;;4.90;2.80;;;9.00;99.90;;;;;;5049105;28;20193;-46
2023/10/27 04:16:05;;;;;;;4.60;2.33;;;9.00;99.90;;;;;;5047666;28;20310;-46
2023/10/27 04:18:31;;;;;;;4.03;2.63;;;9.00;99.90;;;;;;5048141;28;20604;-45
2023/10/27 04:20:56;;;;;;;3.70;3.17;;;8.90;99.90;;;;;;5046425;28;20567;-46
2023/10/27 04:23:22;;;;;;;6.17;3.13;;;9.00;99.90;;;;;;5047288;28;20494;-45
2023/10/27 04:25:47;;;;;;;6.70;3.27;;;8.90;99.90;;;;;;5046427;28;20199;-45
2023/10/27 04:28:13;;;;;;;5.57;3.43;;;9.60;99.90;;;;;;5046075;28;20186;-45
2023/10/27 04:30:39;;;;;;;5.40;2.73;;;8.90;99.90;;;;;;5048172;28;20208;-45
2023/10/27 04:33:05;;;;;;;6.80;3.53;;;8.90;99.90;;;;;;5046869;28;20753;-46
2023/10/27 04:35:32;;;;;;;8.60;3.30;;;8.80;99.90;;;;;;5049259;28;20602;-45
2023/10/27 04:37:58;;;;;;;4.57;3.50;;;8.90;99.90;;;;;;5044035;28;20440;-46
2023/10/27 04:40:25;;;;;;;9.00;3.23;;;8.80;99.90;;;;;;5044188;28;21041;-45
2023/10/27 04:42:51;;;;;;;4.17;2.80;;;8.90;99.90;;;;;;5044663;28;20454;-46
2023/10/27 04:45:16;;;;;;;3.80;3.07;;;8.90;99.90;;;;;;5048264;28;20436;-45
2023/10/27 04:47:43;;;;;;;3.27;2.80;;;8.90;99.90;;;;;;5045033;28;20189;-45
2023/10/27 04:50:09;;;;;;;6.53;3.00;;;8.90;99.90;;;;;;5043661;28;20250;-45
2023/10/27 04:52:34;;;;;;;5.63;2.80;;;8.90;99.90;;;;;;5047301;28;20962;-45
2023/10/27 04:55:00;;;;;;;5.90;3.07;;;9.00;99.90;;;;;;5047773;28;20198;-45
2023/10/27 04:57:26;;;;;;;5.47;3.10;;;8.90;99.90;;;;;;5047060;28;20208;-45
2023/10/27 04:59:51;;;;;;;8.67;3.20;;;8.90;99.90;;;;;;5048418;28;20193;-45
2023/10/27 05:02:17;;;;;;;3.20;2.50;;;8.90;99.90;;;;;;5047297;28;20274;-46
2023/10/27 05:04:42;;;;;;;2.63;2.37;;;8.80;99.90;;;;;;5046496;28;20188;-45
2023/10/27 05:07:10;;;;;;;4.10;2.80;;;8.90;99.90;;;;;;5048984;28;20634;-45
2023/10/27 05:09:35;;;;;;;7.00;2.83;;;8.90;99.90;;;;;;5044470;28;20312;-45
2023/10/27 05:12:02;;;;;;;4.10;2.53;;;8.90;99.90;;;;;;5046913;28;21057;-45
2023/10/27 05:14:28;;;;;;;3.13;2.10;;;8.90;99.90;;;;;;5048062;28;20182;-45
2023/10/27 05:16:54;;;;;;;5.33;3.00;;;8.90;99.90;;;;;;5047927;28;20513;-45
2023/10/27 05:19:20;;;;;;;3.77;1.90;;;8.90;99.90;;;;;;5045016;28;20193;-46
2023/10/27 05:21:45;;;;;;;3.43;2.20;;;8.90;99.90;;;;;;5044006;28;20438;-45
2023/10/27 05:24:11;;;;;;;3.90;2.10;;;8.90;99.90;;;;;;5047016;28;20194;-45
2023/10/27 05:26:37;;;;;;;2.10;1.90;;;8.90;99.90;;;;;;5042189;28;20196;-45
2023/10/27 05:29:03;;;;;;;1.90;1.80;;;8.90;99.90;;;;;;5046286;28;20546;-45
2023/10/27 05:31:28;;;;;;;2.23;2.03;;;8.90;99.90;;;;;;5041979;28;20193;-45
2023/10/27 05:33:54;;;;;;;6.20;1.83;;;8.80;99.90;;;;;;5046280;28;20426;-46
2023/10/27 05:36:20;;;;;;;2.37;2.10;;;8.90;99.90;;;;;;5045788;28;20213;-45
2023/10/27 05:38:46;;;;;;;2.00;1.73;;;8.90;99.90;;;;;;5047202;28;20182;-45
2023/10/27 05:41:11;;;;;;;2.50;1.90;;;8.90;99.90;;;;;;5040632;28;20300;-45
2023/10/27 05:43:37;;;;;;;3.60;1.73;;;8.90;99.90;;;;;;5044673;28;20431;-44
2023/10/27 05:46:03;;;;;;;2.33;2.10;;;8.80;99.90;;;;;;5047165;28;20230;-45
2023/10/27 05:48:28;;;;;;;2.73;1.80;;;8.90;99.90;;;;;;5045157;28;20205;-45
2023/10/27 05:50:54;;;;;;;8.00;2.57;;;8.80;99.90;;;;;;5045357;28;20229;-47
2023/10/27 05:53:19;;;;;;;4.33;2.00;;;8.90;99.90;;;;;;5045616;28;20185;-45
2023/10/27 05:55:45;;;;;;;6.13;2.50;;;8.90;99.90;;;;;;5046267;28;20185;-43
2023/10/27 05:58:11;;;;;;;4.20;2.80;;;8.90;99.90;;;;;;5045418;28;20647;-44
2023/10/27 06:00:37;;;;;;;2.30;2.10;;;8.90;99.90;;;;;;5047892;28;20197;-44
2023/10/27 06:03:03;;;;;;;2.87;2.30;;;8.80;99.90;;;;;;5043590;28;20200;-44
2023/10/27 06:05:29;;;;;;;8.67;2.97;;;8.90;99.90;;;;;;5044530;28;20439;-44
2023/10/27 06:07:54;;;;;;;7.13;2.70;;;8.90;99.90;;;;;;5040232;28;20819;-44
2023/10/27 06:10:20;;;;;;;6.70;2.57;;;8.80;99.90;;;;;;5045003;28;20213;-45
2023/10/27 06:12:46;;;;;;;3.93;2.60;;;8.80;99.90;;;;;;5043847;28;20188;-44
2023/10/27 06:15:11;;;;;;;10.43;3.03;;;8.90;99.90;;;;;;5047258;28;20190;-44
2023/10/27 06:17:37;;;;;;;3.63;2.70;;;8.80;99.90;;;;;;5045030;28;20221;-44
2023/10/27 06:20:03;;;;;;;5.00;2.77;;;8.80;99.90;;;;;;5046331;28;20182;-44
2023/10/27 06:22:29;;;;;;;4.87;2.77;;;8.80;99.90;;;;;;5045192;28;20182;-44
2023/10/27 06:24:55;;;;;;;5.70;2.97;;;8.80;99.90;;;;;;5035569;28;20449;-45
2023/10/27 06:27:21;;;;;;;5.20;2.60;;;8.80;99.90;;;;;;5038205;28;20441;-46
2023/10/27 06:29:47;;;;;;;5.37;2.73;;;8.80;99.90;;;;;;5037975;28;20278;-45
2023/10/27 06:32:13;;;;;;;9.00;3.13;;;8.80;99.90;;;;;;5045042;28;20519;-44
2023/10/27 06:34:38;;;;;;;4.00;3.00;;;8.80;99.90;;;;;;5047738;28;20243;-44
2023/10/27 06:37:05;;;;;;;3.97;3.00;;;8.80;99.90;;;;;;5046129;28;20425;-44
2023/10/27 06:39:31;;;;;;;8.17;3.50;;;8.80;99.90;;;;;;5046174;28;20275;-43
2023/10/27 06:41:56;;;;;;;4.47;3.13;;;8.80;99.90;;;;;;5043186;28;20570;-43
2023/10/27 06:44:22;;;;;;;3.73;2.80;;;8.80;99.90;;;;;;5045469;28;20259;-44
2023/10/27 06:46:48;;;;;;;4.27;3.30;;;8.80;99.90;;;;;;5045177;28;20721;-45
2023/10/27 06:49:14;;;;;;;8.77;3.10;;;8.80;99.90;;;;;;5044968;28;20239;-45
2023/10/27 06:51:40;;;;;;;4.33;3.00;;;8.80;99.90;;;;;;5042359;28;20269;-43
2023/10/27 06:54:05;;;;;;;7.63;3.37;;;8.80;99.90;;;;;;5046076;28;20504;-44
2023/10/27 06:56:31;;;;;;;4.47;2.70;;;8.80;99.90;;;;;;5048615;28;20601;-44
2023/10/27 06:58:57;;;;;;;6.50;3.20;;;8.80;99.90;;;;;;5049541;28;20186;-43
2023/10/27 07:01:23;;;;;;;4.70;3.30;;;8.80;99.90;;;;;;5050649;28;20185;-43
2023/10/27 07:03:50;;;;;;;6.60;3.63;;;8.80;99.90;;;;;;5050487;28;20792;-44
2023/10/27 07:06:15;;;;;;;6.90;3.27;;;8.80;99.90;;;;;;5046423;28;20660;-44
2023/10/27 07:08:43;;;;;;;5.47;2.97;;;8.80;99.90;;;;;;5045844;28;20527;-44
2023/10/27 07:11:09;;;;;;;6.43;3.17;;;8.80;99.90;;;;;;5048880;28;20268;-43
2023/10/27 07:13:35;;;;;;;7.03;3.70;;;8.80;99.90;;;;;;5051037;28;20455;-43
2023/10/27 07:16:01;;;;;;;5.50;3.53;;;8.80;99.90;;;;;;5048065;28;20444;-44
2023/10/27 07:18:26;;;;;;;7.70;2.60;;;8.80;99.90;;;;;;5047904;28;20206;-43
2023/10/27 07:20:53;;;;;;;3.50;3.20;;;9.50;99.90;;;;;;5049354;28;20194;-44
2023/10/27 07:23:19;;;;;;;5.43;3.17;;;8.90;99.90;;;;;;5046552;28;20186;-43
2023/10/27 07:25:44;;;;;;;6.30;3.13;;;8.90;99.90;;;;;;5048718;28;20498;-43
2023/10/27 07:28:11;;;;;;;4.13;3.00;;;8.90;99.90;;;;;;5048952;28;20643;-43
2023/10/27 07:30:36;;;;;;;4.80;3.30;;;8.90;99.90;;;;;;5048982;28;20299;-43
2023/10/27 07:33:03;;;;;;;7.30;3.30;;;9.00;99.90;;;;;;5048888;28;20443;-44
2023/10/27 07:35:30;;;;;;;4.53;3.20;;;9.00;99.90;;;;;;5045648;28;20182;-44
2023/10/27 07:37:56;;;;;;;4.00;2.97;;;8.90;99.90;;;;;;5045366;28;20447;-44
2023/10/27 07:40:22;;;;;;;6.40;3.10;;;9.00;99.90;;;;;;5044204;28;20448;-44
2023/10/27 07:42:47;;;;;;;7.33;3.47;;;9.00;99.90;;;;;;5049364;28;20195;-44
2023/10/27 07:45:13;;;;;;;5.27;2.87;;;9.00;99.90;;;;;;5048961;28;20182;-46
2023/10/27 07:47:38;;;;;;;4.93;2.80;;;9.00;99.90;;;;;;5049004;28;20213;-44
2023/10/27 07:50:06;;;;;;;4.30;2.90;;;9.00;99.90;;;;;;5047642;28;20235;-45
2023/10/27 07:52:32;;;;;;;4.00;3.00;;;9.00;99.90;;;;;;5050311;28;20216;-44
2023/10/27 07:54:59;;;;;;;6.60;3.30;;;9.00;99.90;;;;;;5048829;28;20475;-44
2023/10/27 07:57:25;;;;;;;4.60;3.40;;;9.10;99.90;;;;;;5049750;28;20953;-44
2023/10/27 07:59:51;;;;;;;8.80;3.50;;;9.00;99.90;;;;;;5049877;28;20677;-45
2023/10/27 08:02:16;;;;;;;4.13;2.73;;;9.10;99.90;;;;;;5048969;28;20186;-46
2023/10/27 08:04:42;;;;;;;3.37;2.77;;;9.10;99.90;;;;;;5050030;28;20186;-45
2023/10/27 08:07:07;;;;;;;5.33;2.93;;;9.10;99.90;;;;;;5044991;28;20194;-46
2023/10/27 08:09:33;;;;;;;3.57;2.90;;;9.10;99.90;;;;;;5047923;28;20226;-44
2023/10/27 08:11:59;;;;;;;7.77;3.23;;;9.10;99.90;;;;;;5048162;28;20182;-44
2023/10/27 08:14:24;;;;;;;8.43;2.53;;;9.10;99.90;;;;;;5044922;28;20177;-44
2023/10/27 08:16:50;;;;;;;6.20;2.60;;;9.10;99.90;;;;;;5047435;28;20182;-46
2023/10/27 08:19:15;;;;;;;4.30;2.60;;;9.10;99.90;;;;;;5048431;28;20639;-44
2023/10/27 08:21:41;;;;;;;6.00;3.30;;;9.10;99.90;;;;;;5045915;28;20321;-44
2023/10/27 08:24:07;;;;;;;4.10;3.10;;;9.10;99.90;;;;;;5048931;28;20518;-44
2023/10/27 08:26:33;;;;;;;3.80;3.13;;;9.20;99.90;;;;;;5049814;28;20201;-44
2023/10/27 08:28:59;;;;;;;4.03;2.67;;;9.20;99.90;;;;;;5047937;28;20582;-46
2023/10/27 08:31:24;;;;;;;5.93;3.40;;;9.20;99.90;;;;;;5050439;28;20936;-45
2023/10/27 08:33:50;;;;;;;4.20;2.70;;;9.30;99.90;;;;;;5047316;28;20261;-44
2023/10/27 08:36:15;;;;;;;6.00;2.93;;;9.30;99.90;;;;;;5047791;28;20210;-44
2023/10/27 08:38:42;;;;;;;4.90;2.80;;;9.40;99.90;;;;;;5048880;28;20190;-44
2023/10/27 08:41:08;;;;;;;5.03;3.30;;;9.40;99.90;;;;;;5048571;28;20192;-44
2023/10/27 08:43:34;;;;;;;5.40;2.93;;;9.40;99.90;;;;;;5048776;28;20465;-44
2023/10/27 08:46:04;;;;;;;7.33;3.20;;;9.40;99.90;;;;;;5047289;28;20755;-45
2023/10/27 08:48:30;;;;;;;6.40;3.30;;;9.40;99.90;;;;;;5049451;28;20910;-44
2023/10/27 08:51:00;;;;;;;4.03;3.10;;;9.50;99.90;;;;;;5047655;28;20973;-44
2023/10/27 08:53:26;;;;;;;6.27;3.20;;;9.50;99.90;;;;;;5048708;28;20436;-44
2023/10/27 08:55:51;;;;;;;4.80;2.90;;;9.40;99.90;;;;;;5048468;28;20490;-44
2023/10/27 08:58:17;;;;;;;6.20;3.00;;;9.40;99.90;;;;;;5048170;28;20191;-45
2023/10/27 09:00:47;;;;;;;4.83;3.30;;;9.50;99.90;;;;;;5049614;28;20670;-43
2023/10/27 09:03:17;;;;;;;8.37;4.20;;;9.50;99.90;;;;;;5047220;28;20183;-43
2023/10/27 09:05:42;;;;;;;7.23;2.70;;;9.50;99.90;;;;;;5047756;28;21012;-44
2023/10/27 09:08:09;;;;;;;4.00;2.77;;;9.50;99.90;;;;;;5047830;28;20452;-44
2023/10/27 09:10:36;;;;;;;3.70;2.70;;;9.50;99.90;;;;;;5048823;28;20301;-44
2023/10/27 09:13:04;;;;;;;10.57;2.43;;;9.50;99.90;;;;;;5048520;28;20437;-44
2023/10/27 09:15:45;;;;;;;7.00;3.60;;;9.60;99.90;;;;;;5047437;28;20438;-44
2023/10/27 09:18:11;;;;;;;3.60;2.37;;;9.60;99.90;;;;;;5045847;28;20443;-45
2023/10/27 09:20:50;;;;;;;3.10;2.33;;;9.50;99.90;;;;;;5048100;28;20770;-45
2023/10/27 09:23:17;;;;;;;2.77;2.37;;;9.40;97.30;;;;;;5047648;28;20537;-43
2023/10/27 09:25:43;;;;;;;8.40;2.43;;;9.40;99.90;;;;;;5048055;28;20432;-43
2023/10/27 09:28:11;;;;;;;5.03;2.30;;;9.40;99.90;;;;;;5047520;28;20799;-43
2023/10/27 09:30:41;;;;;;;5.03;2.23;;;9.50;99.90;;;;;;5047173;28;20478;-44
2023/10/27 09:33:26;;;;;;;3.60;2.10;;;9.60;99.90;;;;;;5048851;28;20447;-43
2023/10/27 09:35:52;;;;;;;3.20;2.13;;;9.60;99.90;;;;;;5043929;28;20870;-43
2023/10/27 09:38:18;;;;;;;3.20;2.40;;;10.50;93.60;;;;;;5050927;28;20817;-43
2023/10/27 09:40:48;;;;;;;2.90;2.10;;;9.60;57.90;;;;;;5047303;28;20440;-43
2023/10/27 09:43:20;;;;;;;7.07;3.40;;;9.60;73.70;;;;;;5046636;28;20563;-43
2023/10/27 09:45:54;;;;;;;4.00;2.27;;;9.60;94.70;;;;;;5044476;28;20953;-43
2023/10/27 09:48:24;;;;;;;6.17;2.53;;;9.60;98.20;;;;;;5046968;28;20433;-43
2023/10/27 09:51:10;;;;;;;3.17;2.47;;;9.70;78.70;;;;;;5046936;28;20510;-45
2023/10/27 09:53:37;;;;;;;5.03;2.47;;;9.60;90.60;;;;;;5044852;28;20463;-44
2023/10/27 09:56:03;;;;;;;5.43;2.90;;;9.70;99.90;;;;;;5048285;28;20444;-44
2023/10/27 09:58:31;;;;;;;4.60;3.30;;;9.70;99.90;;;;;;5046172;28;20834;-44
2023/10/27 10:00:59;;;;;;;4.50;2.73;;;9.70;99.90;;;;;;5048240;28;20432;-44
2023/10/27 10:03:27;;;;;;;6.27;2.67;;;9.60;99.90;;;;;;5046427;28;20440;-43
2023/10/27 10:06:18;;;;;;;3.20;2.43;;;9.60;99.90;;;;;;5046501;28;20452;-44
2023/10/27 10:09:09;;;;;;;4.67;2.70;;;9.60;99.90;;;;;;5044297;28;20440;-43
2023/10/27 10:11:55;;;;;;;5.40;2.57;;;9.60;99.90;;;;;;5046043;28;20573;-43
2023/10/27 10:14:36;;;;;;;3.43;3.00;;;9.50;99.90;;;;;;5043454;28;20495;-44
2023/10/27 10:17:02;;;;;;;2.70;2.23;;;9.50;99.90;;;;;;5039490;28;21082;-44
2023/10/27 10:19:49;;;;;;;4.20;2.43;;;9.50;99.90;;;;;;5046443;28;20432;-44
2023/10/27 10:22:39;;;;;;;3.10;2.50;;;9.60;99.90;;;;;;5047347;28;20194;-43
2023/10/27 10:25:23;;;;;;;4.03;2.90;;;9.60;99.90;;;;;;5045970;28;20516;-43
2023/10/27 10:28:07;;;;;;;4.80;2.77;;;9.70;99.90;;;;;;5046525;28;20453;-43
2023/10/27 10:30:33;;;;;;;4.60;3.17;;;9.70;99.90;;;;;;5045773;28;20586;-43
2023/10/27 10:33:16;;;;;;;4.60;2.50;;;9.70;99.90;;;;;;5051518;28;20853;-43
2023/10/27 10:36:05;;;;;;;5.70;2.70;;;9.70;99.90;;;;;;5050242;28;20451;-43
2023/10/27 10:38:38;;;;;;;2.97;2.40;;;9.70;99.90;;;;;;5050933;28;20433;-43
2023/10/27 10:41:04;;;;;;;4.60;2.53;;;9.70;99.90;;;;;;5050158;28;20510;-44
2023/10/27 10:43:32;;;;;;;3.53;2.87;;;9.80;99.90;;;;;;5050666;28;20944;-44
2023/10/27 10:46:00;;;;;;;3.00;2.37;;;9.80;99.90;;;;;;5049502;28;20190;-43
2023/10/27 10:48:28;;;;;;;4.20;2.60;;;9.80;99.90;;;;;;5046668;28;20441;-44
2023/10/27 10:50:56;;;;;;;4.37;2.97;;;9.90;99.90;;;;;;5051728;28;20498;-43
2023/10/27 10:53:24;;;;;;;5.10;2.20;;;9.90;99.90;;;;;;5049538;28;20482;-43
2023/10/27 10:55:51;;;;;;;3.33;2.17;;;10.60;99.90;;;;;;5047726;28;20444;-44
2023/10/27 10:58:36;;;;;;;3.30;2.43;;;10.10;72.00;;;;;;5050697;28;20463;-43
2023/10/27 11:01:03;;;;;;;6.30;2.80;;;10.20;35.70;;;;;;5049815;28;20450;-43
2023/10/27 11:03:31;;;;;;;3.17;2.50;;;10.10;1.00;;;;;;5048481;28;20825;-43
2023/10/27 11:06:07;;;;;;;4.60;2.90;;;10.10;1.10;;;;;;5048899;28;20440;-43
2023/10/27 11:08:35;;;;;;;4.20;3.03;;;10.10;1.00;;;;;;5049681;28;20449;-45
2023/10/27 11:11:05;;;;;;;5.60;3.53;;;10.00;1.00;;;;;;5050270;28;20502;-44
2023/10/27 11:13:33;;;;;;;9.10;3.33;;;10.10;1.00;;;;;;5049317;28;20837;-44
2023/10/27 11:16:00;;;;;;;7.47;4.07;;;10.10;1.00;;;;;;5050542;28;20445;-43
2023/10/27 11:18:31;;;;;;;6.67;4.23;;;10.10;1.00;;;;;;5051029;28;20547;-44
2023/10/27 11:20:57;;;;;;;5.20;3.50;;;10.10;1.00;;;;;;5048213;28;20443;-43
2023/10/27 11:23:29;;;;;;;6.80;4.57;;;10.00;1.00;;;;;;5046663;28;20431;-44
2023/10/27 11:26:05;;;;;;;4.63;3.50;;;10.10;1.00;;;;;;5049310;28;20884;-44
2023/10/27 11:28:39;;;;;;;5.43;3.93;;;10.10;1.00;;;;;;5046267;28;20436;-44
2023/10/27 11:31:14;;;;;;;6.40;3.70;;;10.20;1.00;;;;;;5052822;28;20465;-44
2023/10/27 11:34:09;;;;;;;5.93;3.63;;;10.40;1.00;;;;;;5049128;28;20436;-44
2023/10/27 11:36:58;;;;;;;10.40;4.47;;;10.40;1.00;;;;;;5045131;28;20433;-43
2023/10/27 11:39:24;;;;;;;5.17;3.53;;;10.40;1.00;;;;;;5056640;28;20422;-44
2023/10/27 11:41:53;;;;;;;9.23;3.50;;;10.50;1.00;;;;;;5041570;28;20457;-44
2023/10/27 11:44:19;;;;;;;5.50;4.00;;;10.50;1.00;;;;;;5056086;28;20206;-44
2023/10/27 11:46:56;;;;;;;6.70;4.03;;;10.70;1.00;;;;;;5056036;28;20421;-44
2023/10/27 11:49:22;;;;;;;4.40;3.40;;;11.30;99.90;;;;;;5055788;28;20205;-44
2023/10/27 11:51:51;;;;;;;6.70;3.93;;;10.50;99.90;;;;;;5055525;28;20940;-44
2023/10/27 11:54:17;;;;;;;5.00;4.03;;;10.70;1.00;;;;;;5055777;28;20422;-44
2023/10/27 11:56:43;;;;;;;4.40;3.30;;;10.40;5.80;;;;;;5055182;28;20417;-44
2023/10/27 11:59:10;;;;;;;7.63;3.70;;;10.30;1.00;;;;;;5055946;28;20190;-43
2023/10/27 12:01:37;;;;;;;5.20;4.20;;;10.40;99.90;;;;;;5055812;28;20550;-44
2023/10/27 12:04:04;;;;;;;4.87;4.10;;;10.40;1.00;;;;;;5054027;28;20432;-44
2023/10/27 12:06:30;;;;;;;4.20;3.80;;;10.30;1.00;;;;;;5039851;28;20437;-44
2023/10/27 12:08:56;;;;;;;6.80;3.97;;;10.90;1.00;;;;;;5041368;28;20515;-43
2023/10/27 12:11:21;;;;;;;6.73;3.77;;;10.40;1.00;;;;;;5054473;28;20539;-44
2023/10/27 12:13:47;;;;;;;6.87;4.50;;;10.40;1.00;;;;;;5038014;28;20184;-44
2023/10/27 12:16:13;;;;;;;5.17;3.63;;;10.30;99.90;;;;;;5045870;28;20195;-45
2023/10/27 12:18:39;;;;;;;4.27;3.40;;;10.40;1.00;;;;;;5055717;28;20185;-44
2023/10/27 12:21:05;;;;;;;4.17;3.50;;;10.40;1.00;;;;;;5055533;28;20488;-44
2023/10/27 12:23:32;;;;;;;8.03;3.63;;;10.30;1.00;;;;;;5053654;28;20186;-44
2023/10/27 12:26:00;;;;;;;5.53;3.73;;;10.30;1.00;;;;;;5052653;28;20190;-44
2023/10/27 12:28:29;;;;;;;5.37;3.70;;;10.20;1.00;;;;;;5041261;28;20437;-44
2023/10/27 12:30:57;;;;;;;5.43;3.43;;;10.30;1.00;;;;;;5035117;28;20490;-44
2023/10/27 12:33:22;;;;;;;5.53;3.20;;;10.30;1.00;;;;;;5035550;28;20501;-44
2023/10/27 12:35:49;;;;;;;7.00;3.53;;;10.30;1.00;;;;;;5050831;28;21013;-44
2023/10/27 12:38:16;;;;;;;4.90;3.60;;;10.40;99.90;;;;;;5047349;28;20628;-44
2023/10/27 12:40:41;;;;;;;4.43;3.40;;;10.40;99.90;;;;;;5049325;28;20948;-44
2023/10/27 12:43:08;;;;;;;4.30;3.50;;;10.30;99.20;;;;;;5049214;28;20433;-44
2023/10/27 12:45:34;;;;;;;6.27;3.77;;;10.30;99.90;;;;;;5047989;28;20249;-45
2023/10/27 12:48:01;;;;;;;5.40;3.47;;;10.40;99.90;;;;;;5049589;28;20524;-44
2023/10/27 12:50:28;;;;;;;6.30;3.93;;;10.30;99.90;;;;;;5047171;28;20992;-44
2023/10/27 12:52:54;;;;;;;5.40;3.77;;;10.30;99.90;;;;;;5048485;28;20432;-44
2023/10/27 12:55:19;;;;;;;5.83;3.73;;;10.30;99.90;;;;;;5047389;28;20437;-44
2023/10/27 12:57:45;;;;;;;6.43;4.27;;;11.50;1.00;;;;;;5047957;28;20229;-44